AAL1275 KORD-KSAT
Flight info
| Callsign | AAL1275 |
|---|---|
| Flight time | N/A |
| Altitude | 38000 |
| Route | ACITO ADELL ARLYN STL FSM WINDU QERVO3 |
| Aircraft | A20N/M-SDE2E3FGHIJ1RWXY/LB1 |
Departure
| Time | 2026-05-07 10:51 |
|---|---|
| Airport | Chicago O'Hare International Airport (KORD) |
Arrival
| Time | N/A |
|---|---|
| Airport | San Antonio International Airport (KSAT) |
| Time | Latitude | Longitude | Altitude | Speed | Heading |
|---|---|---|---|---|---|
| 2026-05-07 10:38 | 41.97522 | -87.89838 | 658 ft | 0 kts | 221° |
| 2026-05-07 10:42 | 41.97526 | -87.89834 | 658 ft | 2 kts | 221° |
| 2026-05-07 10:42 | 41.97534 | -87.89825 | 658 ft | 1 kts | 221° |
| 2026-05-07 10:42 | 41.97546 | -87.89815 | 658 ft | 2 kts | 188° |
| 2026-05-07 10:43 | 41.97561 | -87.89816 | 658 ft | 2 kts | 158° |
| 2026-05-07 10:43 | 41.97573 | -87.89827 | 658 ft | 2 kts | 128° |
| 2026-05-07 10:43 | 41.97578 | -87.89836 | 658 ft | 1 kts | 111° |
| 2026-05-07 10:43 | 41.97580 | -87.89844 | 658 ft | 0 kts | 111° |
| 2026-05-07 10:46 | 41.97579 | -87.89842 | 658 ft | 1 kts | 111° |
| 2026-05-07 10:46 | 41.97568 | -87.89801 | 657 ft | 8 kts | 109° |
| 2026-05-07 10:46 | 41.97546 | -87.89715 | 656 ft | 11 kts | 109° |
| 2026-05-07 10:46 | 41.97519 | -87.89604 | 655 ft | 12 kts | 109° |
| 2026-05-07 10:47 | 41.97495 | -87.89490 | 654 ft | 12 kts | 88° |
| 2026-05-07 10:47 | 41.97569 | -87.89434 | 653 ft | 14 kts | 1° |
| 2026-05-07 10:47 | 41.97672 | -87.89433 | 653 ft | 15 kts | 359° |
| 2026-05-07 10:47 | 41.97779 | -87.89435 | 653 ft | 15 kts | 359° |
| 2026-05-07 10:48 | 41.97887 | -87.89423 | 654 ft | 15 kts | 19° |
| 2026-05-07 10:48 | 41.97963 | -87.89327 | 654 ft | 15 kts | 50° |
| 2026-05-07 10:48 | 41.98038 | -87.89210 | 652 ft | 17 kts | 49° |
| 2026-05-07 10:48 | 41.98119 | -87.89082 | 651 ft | 18 kts | 46° |
| 2026-05-07 10:49 | 41.98236 | -87.89036 | 651 ft | 18 kts | 1° |
| 2026-05-07 10:49 | 41.98293 | -87.89037 | 651 ft | 4 kts | 358° |
| 2026-05-07 10:49 | 41.98327 | -87.89038 | 651 ft | 5 kts | 358° |
| 2026-05-07 10:49 | 41.98369 | -87.89051 | 651 ft | 7 kts | 316° |
| 2026-05-07 10:50 | 41.98387 | -87.89178 | 651 ft | 20 kts | 270° |
| 2026-05-07 10:50 | 41.98386 | -87.89678 | 655 ft | 89 kts | 270° |
| 2026-05-07 10:50 | 41.98386 | -87.90797 | 661 ft | 147 kts | 270° |
| 2026-05-07 10:50 | 41.98399 | -87.92371 | 780 ft | 183 kts | 271° |
| 2026-05-07 10:51 | 41.98452 | -87.94154 | 1272 ft | 197 kts | 272° |
| 2026-05-07 10:51 | 41.98484 | -87.95971 | 2038 ft | 200 kts | 268° |
| 2026-05-07 10:51 | 41.98253 | -87.97769 | 2972 ft | 194 kts | 255° |
| 2026-05-07 10:51 | 41.97712 | -87.99378 | 3811 ft | 193 kts | 242° |
| 2026-05-07 10:52 | 41.96856 | -88.00867 | 4271 ft | 215 kts | 230° |
| 2026-05-07 10:52 | 41.95642 | -88.02216 | 4732 ft | 237 kts | 218° |
| 2026-05-07 10:52 | 41.94118 | -88.03291 | 5323 ft | 255 kts | 206° |
| 2026-05-07 10:52 | 41.92389 | -88.03993 | 5992 ft | 269 kts | 198° |
| 2026-05-07 10:53 | 41.90579 | -88.04700 | 6701 ft | 275 kts | 205° |
| 2026-05-07 10:53 | 41.88699 | -88.05367 | 7528 ft | 284 kts | 196° |
| 2026-05-07 10:53 | 41.86775 | -88.05804 | 8367 ft | 288 kts | 195° |
| 2026-05-07 10:53 | 41.84793 | -88.06237 | 9188 ft | 292 kts | 195° |
| 2026-05-07 10:54 | 41.82792 | -88.06709 | 10007 ft | 295 kts | 196° |
| 2026-05-07 10:54 | 41.80747 | -88.07224 | 10702 ft | 303 kts | 197° |
| 2026-05-07 10:54 | 41.78636 | -88.07785 | 11119 ft | 320 kts | 197° |
| 2026-05-07 10:54 | 41.76402 | -88.08392 | 11497 ft | 338 kts | 197° |
| 2026-05-07 10:55 | 41.74019 | -88.09042 | 11841 ft | 355 kts | 197° |
| 2026-05-07 10:55 | 41.71577 | -88.09708 | 12444 ft | 363 kts | 197° |
| 2026-05-07 10:55 | 41.69123 | -88.10372 | 13245 ft | 364 kts | 197° |
| 2026-05-07 10:55 | 41.66663 | -88.11037 | 14038 ft | 365 kts | 197° |
| 2026-05-07 10:56 | 41.64155 | -88.11720 | 14667 ft | 370 kts | 198° |
| 2026-05-07 10:56 | 41.61610 | -88.12415 | 15299 ft | 375 kts | 198° |
| 2026-05-07 10:56 | 41.59078 | -88.13107 | 15973 ft | 377 kts | 198° |
| 2026-05-07 10:56 | 41.56496 | -88.13811 | 16636 ft | 380 kts | 198° |
| 2026-05-07 10:57 | 41.53887 | -88.14520 | 17307 ft | 382 kts | 198° |
| 2026-05-07 10:57 | 41.51304 | -88.15223 | 17917 ft | 385 kts | 198° |
| 2026-05-07 10:57 | 41.48665 | -88.15943 | 18525 ft | 388 kts | 198° |
| 2026-05-07 10:57 | 41.46011 | -88.16663 | 19086 ft | 392 kts | 199° |
| 2026-05-07 10:58 | 41.43340 | -88.17389 | 19651 ft | 394 kts | 199° |
| 2026-05-07 10:58 | 41.40659 | -88.18182 | 20203 ft | 394 kts | 201° |
| 2026-05-07 10:58 | 41.38047 | -88.19159 | 20710 ft | 393 kts | 205° |
| 2026-05-07 10:58 | 41.35436 | -88.20312 | 21196 ft | 395 kts | 206° |
| 2026-05-07 10:59 | 41.32851 | -88.21468 | 21688 ft | 397 kts | 206° |
| 2026-05-07 10:59 | 41.30222 | -88.22646 | 22216 ft | 399 kts | 206° |
| 2026-05-07 10:59 | 41.27589 | -88.23824 | 22700 ft | 401 kts | 207° |
| 2026-05-07 10:59 | 41.24952 | -88.25000 | 23207 ft | 402 kts | 207° |
| 2026-05-07 11:00 | 41.22304 | -88.26195 | 23684 ft | 403 kts | 207° |
| 2026-05-07 11:00 | 41.19658 | -88.27392 | 24105 ft | 405 kts | 207° |
| 2026-05-07 11:00 | 41.17009 | -88.28593 | 24548 ft | 406 kts | 208° |
| 2026-05-07 11:00 | 41.14319 | -88.29813 | 24936 ft | 408 kts | 208° |
| 2026-05-07 11:01 | 41.11626 | -88.31029 | 25319 ft | 409 kts | 208° |
| 2026-05-07 11:01 | 41.08958 | -88.32233 | 25715 ft | 410 kts | 208° |
| 2026-05-07 11:01 | 41.06236 | -88.33464 | 26056 ft | 413 kts | 208° |
| 2026-05-07 11:01 | 41.03521 | -88.34689 | 26385 ft | 415 kts | 208° |
| 2026-05-07 11:02 | 41.00780 | -88.35922 | 26710 ft | 416 kts | 208° |
| 2026-05-07 11:02 | 40.98046 | -88.37151 | 27051 ft | 417 kts | 208° |
| 2026-05-07 11:02 | 40.95318 | -88.38379 | 27345 ft | 418 kts | 208° |
| 2026-05-07 11:02 | 40.92527 | -88.39629 | 27638 ft | 420 kts | 208° |
| 2026-05-07 11:03 | 40.89769 | -88.40865 | 27901 ft | 421 kts | 208° |
| 2026-05-07 11:03 | 40.86993 | -88.42106 | 28294 ft | 420 kts | 208° |
| 2026-05-07 11:03 | 40.84249 | -88.43333 | 28677 ft | 418 kts | 208° |
| 2026-05-07 11:03 | 40.81484 | -88.44568 | 29050 ft | 416 kts | 208° |
| 2026-05-07 11:04 | 40.78768 | -88.45780 | 29441 ft | 414 kts | 208° |
| 2026-05-07 11:04 | 40.76054 | -88.46990 | 29812 ft | 413 kts | 208° |
| 2026-05-07 11:04 | 40.73333 | -88.48202 | 30186 ft | 411 kts | 208° |
| 2026-05-07 11:04 | 40.70636 | -88.49403 | 30507 ft | 410 kts | 208° |
| 2026-05-07 11:05 | 40.67932 | -88.50608 | 30836 ft | 409 kts | 208° |
| 2026-05-07 11:05 | 40.65246 | -88.51801 | 31151 ft | 408 kts | 209° |
| 2026-05-07 11:05 | 40.62573 | -88.52991 | 31419 ft | 408 kts | 209° |
| 2026-05-07 11:05 | 40.59906 | -88.54174 | 31737 ft | 406 kts | 209° |
| 2026-05-07 11:06 | 40.57232 | -88.55360 | 32016 ft | 404 kts | 210° |
| 2026-05-07 11:06 | 40.54598 | -88.56529 | 32297 ft | 402 kts | 209° |
| 2026-05-07 11:06 | 40.51960 | -88.57697 | 32550 ft | 401 kts | 210° |
| 2026-05-07 11:06 | 40.49306 | -88.58873 | 32784 ft | 401 kts | 210° |
| 2026-05-07 11:07 | 40.46689 | -88.60029 | 33021 ft | 400 kts | 210° |
| 2026-05-07 11:07 | 40.44059 | -88.61192 | 33257 ft | 399 kts | 210° |
| 2026-05-07 11:07 | 40.41437 | -88.62350 | 33498 ft | 397 kts | 210° |
| 2026-05-07 11:07 | 40.38858 | -88.63593 | 33778 ft | 390 kts | 213° |
| 2026-05-07 11:08 | 40.36410 | -88.65004 | 34008 ft | 385 kts | 217° |
| 2026-05-07 11:08 | 40.34038 | -88.66601 | 34193 ft | 382 kts | 219° |
| 2026-05-07 11:08 | 40.31766 | -88.68371 | 34370 ft | 379 kts | 222° |
| 2026-05-07 11:08 | 40.29591 | -88.70306 | 34623 ft | 374 kts | 225° |
| 2026-05-07 11:09 | 40.27542 | -88.72360 | 34883 ft | 369 kts | 227° |
| 2026-05-07 11:09 | 40.25620 | -88.74530 | 35064 ft | 367 kts | 231° |
| 2026-05-07 11:09 | 40.23780 | -88.76849 | 35241 ft | 366 kts | 232° |
| 2026-05-07 11:09 | 40.21979 | -88.79137 | 35454 ft | 365 kts | 232° |
| 2026-05-07 11:10 | 40.20140 | -88.81472 | 35657 ft | 364 kts | 232° |
| 2026-05-07 11:10 | 40.18351 | -88.83749 | 35844 ft | 364 kts | 232° |
| 2026-05-07 11:10 | 40.16539 | -88.86053 | 35983 ft | 365 kts | 232° |
| 2026-05-07 11:10 | 40.14711 | -88.88385 | 36126 ft | 365 kts | 232° |
| 2026-05-07 11:11 | 40.12901 | -88.90692 | 36244 ft | 366 kts | 232° |
| 2026-05-07 11:11 | 40.11079 | -88.93009 | 36393 ft | 366 kts | 232° |
| 2026-05-07 11:11 | 40.09251 | -88.95333 | 36534 ft | 367 kts | 232° |
| 2026-05-07 11:11 | 40.07423 | -88.97663 | 36627 ft | 368 kts | 232° |
| 2026-05-07 11:12 | 40.03765 | -89.02315 | 36842 ft | 369 kts | 232° |
| 2026-05-07 11:12 | 40.00085 | -89.06983 | 37013 ft | 371 kts | 232° |
| 2026-05-07 11:13 | 39.96404 | -89.11648 | 37219 ft | 371 kts | 232° |
| 2026-05-07 11:13 | 39.92706 | -89.16333 | 37420 ft | 371 kts | 232° |
| 2026-05-07 11:14 | 39.90841 | -89.18689 | 37522 ft | 371 kts | 232° |
| 2026-05-07 11:14 | 39.88991 | -89.21026 | 37598 ft | 371 kts | 232° |
| 2026-05-07 11:14 | 39.85281 | -89.25707 | 37696 ft | 374 kts | 232° |
| 2026-05-07 11:15 | 39.81556 | -89.30402 | 37862 ft | 373 kts | 232° |
| 2026-05-07 11:15 | 39.77850 | -89.35062 | 37982 ft | 374 kts | 232° |
| 2026-05-07 11:16 | 39.74097 | -89.39773 | 38017 ft | 374 kts | 232° |
| 2026-05-07 11:16 | 39.70383 | -89.44429 | 38011 ft | 372 kts | 232° |
| 2026-05-07 11:17 | 39.66654 | -89.49097 | 38011 ft | 372 kts | 232° |
| 2026-05-07 11:17 | 39.62948 | -89.53725 | 38011 ft | 371 kts | 233° |
| 2026-05-07 11:18 | 39.59232 | -89.58364 | 38020 ft | 371 kts | 232° |
| 2026-05-07 11:18 | 39.55523 | -89.62994 | 38017 ft | 371 kts | 232° |
| 2026-05-07 11:19 | 39.51819 | -89.67595 | 38010 ft | 371 kts | 232° |
| 2026-05-07 11:19 | 39.48094 | -89.72224 | 38008 ft | 372 kts | 232° |
| 2026-05-07 11:20 | 39.44381 | -89.76830 | 38017 ft | 369 kts | 232° |
| 2026-05-07 11:20 | 39.40656 | -89.81437 | 38027 ft | 370 kts | 232° |
| 2026-05-07 11:21 | 39.36966 | -89.85999 | 38025 ft | 368 kts | 232° |
| 2026-05-07 11:21 | 39.33279 | -89.90550 | 38003 ft | 368 kts | 232° |
| 2026-05-07 11:22 | 39.29580 | -89.95111 | 38010 ft | 369 kts | 232° |
| 2026-05-07 11:22 | 39.25861 | -89.99689 | 38021 ft | 368 kts | 232° |
| 2026-05-07 11:23 | 39.22175 | -90.04221 | 38022 ft | 366 kts | 232° |
| 2026-05-07 11:23 | 39.18498 | -90.08727 | 38023 ft | 365 kts | 232° |
| 2026-05-07 11:24 | 39.14858 | -90.13182 | 38022 ft | 364 kts | 232° |
| 2026-05-07 11:24 | 39.11196 | -90.17669 | 38021 ft | 363 kts | 232° |
| 2026-05-07 11:25 | 39.07536 | -90.22141 | 38024 ft | 363 kts | 232° |
| 2026-05-07 11:25 | 39.03920 | -90.26546 | 38025 ft | 362 kts | 232° |
| 2026-05-07 11:26 | 39.00250 | -90.31014 | 38039 ft | 362 kts | 232° |
| 2026-05-07 11:26 | 38.96661 | -90.35380 | 38017 ft | 362 kts | 232° |
| 2026-05-07 11:27 | 38.93003 | -90.39824 | 38033 ft | 362 kts | 232° |
| 2026-05-07 11:27 | 38.89353 | -90.44242 | 38033 ft | 361 kts | 233° |
| 2026-05-07 11:28 | 38.85705 | -90.48655 | 38028 ft | 361 kts | 232° |
| 2026-05-07 11:28 | 38.81995 | -90.52989 | 38048 ft | 361 kts | 231° |
| 2026-05-07 11:29 | 38.78294 | -90.57270 | 38032 ft | 358 kts | 231° |
| 2026-05-07 11:29 | 38.74611 | -90.61534 | 38026 ft | 359 kts | 232° |
| 2026-05-07 11:30 | 38.70896 | -90.65830 | 38033 ft | 360 kts | 231° |
| 2026-05-07 11:30 | 38.67177 | -90.70122 | 38050 ft | 360 kts | 231° |
| 2026-05-07 11:31 | 38.63473 | -90.74400 | 38035 ft | 359 kts | 230° |
| 2026-05-07 11:31 | 38.59795 | -90.78645 | 38032 ft | 357 kts | 231° |
| 2026-05-07 11:32 | 38.54261 | -90.85004 | 38037 ft | 357 kts | 231° |
| 2026-05-07 11:33 | 38.50569 | -90.89243 | 38034 ft | 358 kts | 231° |
| 2026-05-07 11:33 | 38.46884 | -90.93473 | 38045 ft | 359 kts | 231° |
| 2026-05-07 11:34 | 38.43167 | -90.97729 | 38048 ft | 359 kts | 231° |
| 2026-05-07 11:34 | 38.39470 | -91.01966 | 38043 ft | 357 kts | 230° |
| 2026-05-07 11:35 | 38.35795 | -91.06162 | 38051 ft | 356 kts | 231° |
| 2026-05-07 11:35 | 38.32100 | -91.10368 | 38048 ft | 358 kts | 231° |
| 2026-05-07 11:36 | 38.28382 | -91.14603 | 38062 ft | 358 kts | 231° |
| 2026-05-07 11:36 | 38.24727 | -91.18756 | 38062 ft | 353 kts | 232° |
| 2026-05-07 11:37 | 38.21061 | -91.22918 | 38063 ft | 356 kts | 231° |
| 2026-05-07 11:37 | 38.17386 | -91.27092 | 38057 ft | 356 kts | 231° |
| 2026-05-07 11:38 | 38.13697 | -91.31276 | 38059 ft | 354 kts | 230° |
| 2026-05-07 11:38 | 38.10027 | -91.35417 | 38043 ft | 354 kts | 231° |
| 2026-05-07 11:39 | 38.06360 | -91.39561 | 38052 ft | 353 kts | 231° |
| 2026-05-07 11:39 | 38.02686 | -91.43697 | 38052 ft | 353 kts | 231° |
| 2026-05-07 11:40 | 37.99071 | -91.47770 | 38094 ft | 354 kts | 231° |
| 2026-05-07 11:40 | 37.95386 | -91.51906 | 38021 ft | 353 kts | 231° |
| 2026-05-07 11:41 | 37.91713 | -91.56033 | 38030 ft | 353 kts | 231° |
| 2026-05-07 11:41 | 37.88086 | -91.60104 | 38044 ft | 351 kts | 232° |